Disclaimer

Please do not use the information listed here in-flight or in-navigation, as they are not provided to us by the airports but are provided by volunteers, so they might be outdated.

Search


Regions


Airport information page

Radio informations:
ZIHUATANEJO TWR - 118.3 MHz
ZIHUATANEJO APP - 121.0 MHz

Airport informations:
Latitude: 17° 36' 05.65" N
Longitude: 101° 27' 37.93" W
Elevation: 26 feet - 8 meters
Operating hours: Remarks
Operating agency: Civil government, landing fees and diplomatic clearance may be required
Timezone: UTC-6(-5DT) - First Sunday in April to the last Saturday in October
Fuel: Jet A1, without icing nhibitor.

100/130 MIL Spec, low lead, aviation gasoline (BLUE)

Runway information:
08/26 - 8202 x 197 feet< - >2500 x 60 meters

Recent METARs:
MMZH 162246Z 24010KT 7SM SKC 30/22 A2984
MMZH 162246Z 24010KT 7SM SKC 30/22 A2984
MMZH 162346Z 24010KT 7SM SKC 29/22 A2984 RMK SLP096 57003 960

Airport on the map: